Time;durP1;ratioP1;P1;durP2;ratioP2;P2;SDS_P1;SDS_P2;PMS_P1;PMS_P2;Temp;Humidity;BMP_temperature;BMP_pressure;BME280_temperature;BME280_humidity;BME280_pressure;Samples;Min_cycle;Max_cycle;Signal;HPM_P1;HPM_P2
2023/06/30 00:02:33;;;;;;;6.70;2.47;;;22.20;77.50;;;;;;4018791;29;19935;-54
2023/06/30 00:05:15;;;;;;;7.20;2.33;;;22.10;77.70;;;;;;4019051;29;20064;-54
2023/06/30 00:07:58;;;;;;;6.93;2.85;;;22.10;77.20;;;;;;4018665;29;20513;-54
2023/06/30 00:10:40;;;;;;;5.82;2.53;;;22.10;77.00;;;;;;4019161;29;20137;-54
2023/06/30 00:13:21;;;;;;;6.07;2.40;;;22.10;76.80;;;;;;4018913;29;20114;-50
2023/06/30 00:16:02;;;;;;;6.78;2.45;;;22.10;76.80;;;;;;4019175;29;20117;-53
2023/06/30 00:18:43;;;;;;;3.78;2.13;;;22.10;77.60;;;;;;4003567;29;20069;-55
2023/06/30 00:21:26;;;;;;;6.88;2.40;;;22.10;76.60;;;;;;4003405;29;20133;-54
2023/06/30 00:24:07;;;;;;;6.05;2.63;;;22.10;76.60;;;;;;4010983;29;20060;-53
2023/06/30 00:26:48;;;;;;;;;;;22.10;76.60;;;;;;4018214;29;20106;-54
2023/06/30 00:29:30;;;;;;;5.30;2.15;;;22.10;76.80;;;;;;4007415;29;20064;-54
2023/06/30 00:32:11;;;;;;;5.13;2.25;;;22.00;77.10;;;;;;3992218;29;20469;-53
2023/06/30 00:34:51;;;;;;;4.97;2.13;;;22.00;76.70;;;;;;4003584;29;20049;-54
2023/06/30 00:37:34;;;;;;;8.40;2.58;;;22.00;76.40;;;;;;4010247;29;20124;-53
2023/06/30 00:40:15;;;;;;;6.57;2.63;;;22.00;75.90;;;;;;4007001;29;20128;-52
2023/06/30 00:42:55;;;;;;;6.30;2.80;;;22.00;76.10;;;;;;4018786;29;20400;-55
2023/06/30 00:45:36;;;;;;;7.25;2.92;;;22.00;76.20;;;;;;4017937;29;20196;-53
2023/06/30 00:48:19;;;;;;;8.85;2.70;;;22.00;76.20;;;;;;4005390;29;20088;-54
2023/06/30 00:51:00;;;;;;;7.20;2.63;;;22.00;75.90;;;;;;4018547;29;20129;-53
2023/06/30 00:53:42;;;;;;;8.68;2.90;;;22.00;75.60;;;;;;4007196;29;20390;-53
2023/06/30 00:56:23;;;;;;;6.32;2.58;;;22.00;75.50;;;;;;4006517;29;20604;-54
2023/06/30 00:59:04;;;;;;;2.97;2.40;;;22.00;75.50;;;;;;4006495;29;20109;-53
2023/06/30 01:01:50;;;;;;;5.93;2.45;;;21.90;76.20;;;;;;4018051;29;20534;-55
2023/06/30 01:04:38;;;;;;;9.43;2.83;;;22.00;75.30;;;;;;4018188;29;20493;-55
2023/06/30 01:07:26;;;;;;;9.98;3.25;;;21.90;74.90;;;;;;4000821;29;20181;-54
2023/06/30 01:10:12;;;;;;;6.88;2.50;;;21.90;74.70;;;;;;4018151;29;20060;-54
2023/06/30 01:12:54;;;;;;;7.82;2.67;;;21.90;74.70;;;;;;4018106;29;20076;-52
2023/06/30 01:15:36;;;;;;;6.97;2.70;;;21.90;74.90;;;;;;4006670;29;20516;-55
2023/06/30 01:18:20;;;;;;;6.88;2.13;;;21.90;74.90;;;;;;4000698;29;20056;-54
2023/06/30 01:21:01;;;;;;;6.32;2.97;;;21.90;75.60;;;;;;4018184;29;20051;-53
2023/06/30 01:23:48;;;;;;;4.00;1.95;;;21.90;74.70;;;;;;4015335;29;20186;-51
2023/06/30 01:26:34;;;;;;;5.80;2.28;;;21.90;74.70;;;;;;3991367;29;20068;-53
2023/06/30 01:29:15;;;;;;;7.38;2.42;;;21.90;74.70;;;;;;4002734;29;20607;-55
2023/06/30 01:31:56;;;;;;;6.45;2.30;;;21.80;74.60;;;;;;3991293;29;20061;-54
2023/06/30 01:34:37;;;;;;;6.93;2.78;;;21.80;74.30;;;;;;4012630;29;20181;-55
2023/06/30 01:37:18;;;;;;;8.68;2.08;;;21.80;74.30;;;;;;4017844;29;20429;-54
2023/06/30 01:39:59;;;;;;;7.53;2.10;;;21.80;75.10;;;;;;4006296;29;20206;-56
2023/06/30 01:42:42;;;;;;;1.90;1.73;;;21.80;74.30;;;;;;4005973;29;20069;-53
2023/06/30 01:45:24;;;;;;;4.47;2.20;;;21.80;74.10;;;;;;4002471;29;20077;-56
2023/06/30 01:48:06;;;;;;;4.85;2.40;;;21.80;74.10;;;;;;4002423;29;20194;-51
2023/06/30 01:50:46;;;;;;;6.28;2.70;;;21.80;74.00;;;;;;3990778;29;20052;-54
2023/06/30 01:53:28;;;;;;;5.35;2.55;;;21.80;74.20;;;;;;4011686;29;20063;-54
2023/06/30 01:56:09;;;;;;;6.95;2.47;;;21.80;74.40;;;;;;4005850;29;20168;-51
2023/06/30 01:58:51;;;;;;;6.15;2.20;;;21.80;74.30;;;;;;4005808;29;20067;-55
2023/06/30 02:01:32;;;;;;;4.55;2.15;;;21.80;74.20;;;;;;4005782;29;20068;-54
2023/06/30 02:04:13;;;;;;;;;;;21.70;74.00;;;;;;3997614;29;20171;-53
2023/06/30 02:06:57;;;;;;;3.92;2.17;;;21.70;74.20;;;;;;4017257;29;20560;-53
2023/06/30 02:09:38;;;;;;;6.65;2.00;;;21.70;74.70;;;;;;4017330;29;20056;-50
2023/06/30 02:12:27;;;;;;;4.30;2.20;;;21.70;74.20;;;;;;4005529;29;20064;-56
2023/06/30 02:15:10;;;;;;;;;;;21.70;74.90;;;;;;3991053;29;20078;-56
2023/06/30 02:17:51;;;;;;;5.85;2.28;;;21.70;74.20;;;;;;3990646;29;19932;-55
2023/06/30 02:20:32;;;;;;;5.85;2.50;;;21.60;74.60;;;;;;3997248;29;20406;-56
2023/06/30 02:23:13;;;;;;;5.35;1.92;;;21.60;74.00;;;;;;4005109;29;20125;-55
2023/06/30 02:25:54;;;;;;;4.78;2.40;;;21.60;73.70;;;;;;4016858;29;20048;-55
2023/06/30 02:28:35;;;;;;;4.75;2.35;;;21.60;73.60;;;;;;4017363;29;20186;-54
2023/06/30 02:31:17;;;;;;;5.18;2.35;;;21.60;73.50;;;;;;4005411;29;20056;-54
2023/06/30 02:33:59;;;;;;;6.15;2.30;;;21.60;73.40;;;;;;4016450;29;20528;-56
2023/06/30 02:36:42;;;;;;;8.00;2.50;;;21.60;73.30;;;;;;4016668;29;20104;-55
2023/06/30 02:39:24;;;;;;;8.57;1.92;;;21.60;73.20;;;;;;4016739;29;20064;-56
2023/06/30 02:42:07;;;;;;;8.02;2.70;;;21.60;73.00;;;;;;3999098;29;20061;-54
2023/06/30 02:44:48;;;;;;;5.40;2.63;;;21.60;73.00;;;;;;4007913;29;20188;-56
2023/06/30 02:47:31;;;;;;;7.75;2.40;;;21.50;72.90;;;;;;4004910;29;20194;-56
2023/06/30 02:50:12;;;;;;;7.88;2.45;;;21.60;73.80;;;;;;4004830;29;20067;-54
2023/06/30 02:52:54;;;;;;;6.70;2.55;;;21.60;72.90;;;;;;4004390;29;20530;-56
2023/06/30 02:55:36;;;;;;;7.28;2.80;;;21.60;72.70;;;;;;4000383;29;20129;-53
2023/06/30 02:58:22;;;;;;;6.03;2.63;;;21.50;72.60;;;;;;3990047;29;20060;-56
2023/06/30 03:01:05;;;;;;;9.55;2.92;;;21.50;72.60;;;;;;3989636;29;20068;-56
2023/06/30 03:03:52;;;;;;;5.57;2.50;;;21.50;72.50;;;;;;3990069;29;20052;-54
2023/06/30 03:06:35;;;;;;;5.68;2.35;;;21.50;72.50;;;;;;3996389;29;20193;-55
2023/06/30 03:09:16;;;;;;;;;;;21.50;72.40;;;;;;4005115;29;20125;-54
2023/06/30 03:11:57;;;;;;;6.32;2.42;;;21.50;72.70;;;;;;4004345;29;20061;-53
2023/06/30 03:14:39;;;;;;;5.63;2.55;;;21.50;73.30;;;;;;4004500;29;20061;-54
2023/06/30 03:17:20;;;;;;;4.82;2.35;;;21.40;72.80;;;;;;4004840;29;20077;-55
2023/06/30 03:20:08;;;;;;;6.65;2.67;;;21.40;72.80;;;;;;4016217;29;20060;-55
2023/06/30 03:22:54;;;;;;;3.45;2.05;;;21.40;72.60;;;;;;4015513;29;20061;-55
2023/06/30 03:25:34;;;;;;;10.40;2.70;;;21.40;72.50;;;;;;3994174;29;20418;-55
2023/06/30 03:28:15;;;;;;;6.03;2.90;;;21.40;72.50;;;;;;4016107;29;20097;-56
2023/06/30 03:30:56;;;;;;;;;;;21.40;72.50;;;;;;4016100;29;20133;-55
2023/06/30 03:33:38;;;;;;;6.78;2.50;;;21.40;72.80;;;;;;4015114;29;19935;-55
2023/06/30 03:36:21;;;;;;;5.22;2.17;;;21.40;73.30;;;;;;4008754;29;20056;-56
2023/06/30 03:39:02;;;;;;;5.32;2.10;;;21.40;72.60;;;;;;4016655;29;20149;-53
2023/06/30 03:41:43;;;;;;;7.03;2.70;;;21.30;72.30;;;;;;4014837;29;20104;-54
2023/06/30 03:44:24;;;;;;;5.85;2.40;;;21.30;71.90;;;;;;4008324;29;20060;-54
2023/06/30 03:47:06;;;;;;;6.68;2.10;;;21.30;71.70;;;;;;4015287;29;20137;-56
2023/06/30 03:49:47;;;;;;;7.35;2.25;;;21.30;71.60;;;;;;4015221;29;20193;-55
2023/06/30 03:52:29;;;;;;;6.85;2.65;;;21.30;71.50;;;;;;4015987;29;20517;-56
2023/06/30 03:55:10;;;;;;;6.72;2.60;;;21.30;71.50;;;;;;3999933;29;20114;-55
2023/06/30 03:57:50;;;;;;;6.65;2.47;;;21.30;71.60;;;;;;4001234;29;20053;-57
2023/06/30 04:00:32;;;;;;;6.47;2.42;;;21.30;71.50;;;;;;3999913;29;20057;-52
2023/06/30 04:03:12;;;;;;;;;;;21.30;71.40;;;;;;4006583;29;20061;-55
2023/06/30 04:05:54;;;;;;;5.25;2.42;;;21.20;71.60;;;;;;4015577;29;19935;-55
2023/06/30 04:08:36;;;;;;;;;;;21.30;72.20;;;;;;4016846;29;20062;-56
2023/06/30 04:11:17;;;;;;;4.72;2.10;;;21.20;72.00;;;;;;4015716;29;19971;-55
2023/06/30 04:13:59;;;;;;;4.93;2.42;;;21.20;72.50;;;;;;4016269;29;20060;-54
2023/06/30 04:16:40;;;;;;;4.05;2.25;;;21.20;72.10;;;;;;4016548;29;20061;-56
2023/06/30 04:19:22;;;;;;;4.53;2.10;;;21.20;71.90;;;;;;4015223;29;20208;-54
2023/06/30 04:22:03;;;;;;;6.32;2.10;;;21.20;71.80;;;;;;4018099;29;20508;-54
2023/06/30 04:24:46;;;;;;;5.63;1.95;;;21.20;71.70;;;;;;4019057;29;20223;-56
2023/06/30 04:27:27;;;;;;;6.50;2.00;;;21.20;71.60;;;;;;4019064;29;20527;-56
2023/06/30 04:30:08;;;;;;;8.02;3.85;;;21.20;72.60;;;;;;4010428;29;20123;-56
2023/06/30 04:32:49;;;;;;;5.30;2.00;;;21.20;71.60;;;;;;4018882;29;20125;-57
2023/06/30 04:35:30;;;;;;;5.10;2.10;;;21.10;71.50;;;;;;4018718;29;20060;-56
2023/06/30 04:38:11;;;;;;;4.38;2.10;;;21.20;71.80;;;;;;4018370;29;20069;-58
2023/06/30 04:40:54;;;;;;;5.95;2.63;;;21.20;72.00;;;;;;4017587;29;20483;-56
2023/06/30 04:43:35;;;;;;;4.80;2.05;;;21.20;72.00;;;;;;4018395;29;20061;-56
2023/06/30 04:46:16;;;;;;;4.40;2.05;;;21.20;72.10;;;;;;4018522;29;20060;-55
2023/06/30 04:48:56;;;;;;;;;;;21.20;72.20;;;;;;4018301;29;20057;-56
2023/06/30 04:51:37;;;;;;;5.32;2.17;;;21.20;72.30;;;;;;3991711;29;19932;-56
2023/06/30 04:54:19;;;;;;;8.55;2.70;;;21.30;72.70;;;;;;4002943;29;20190;-54
2023/06/30 04:57:01;;;;;;;3.15;2.03;;;21.30;72.50;;;;;;4003005;29;20130;-51
2023/06/30 04:59:42;;;;;;;7.78;2.65;;;21.30;72.30;;;;;;4011234;29;20056;-57
2023/06/30 05:02:23;;;;;;;5.60;1.92;;;21.30;72.70;;;;;;4018392;29;20449;-56
2023/06/30 05:05:04;;;;;;;4.97;2.20;;;21.40;73.40;;;;;;4018394;29;20061;-55
2023/06/30 05:07:46;;;;;;;6.80;2.72;;;21.40;72.70;;;;;;4018631;29;20060;-52
2023/06/30 05:10:27;;;;;;;6.43;2.00;;;21.40;72.60;;;;;;4015961;29;20056;-54
2023/06/30 05:13:09;;;;;;;5.20;2.30;;;21.40;72.90;;;;;;4018116;29;20056;-53
2023/06/30 05:15:50;;;;;;;5.30;2.25;;;21.40;73.80;;;;;;4018174;29;20116;-52
2023/06/30 05:18:31;;;;;;;7.32;2.20;;;21.40;72.90;;;;;;4017980;29;20065;-53
2023/06/30 05:21:12;;;;;;;5.45;2.10;;;21.40;73.80;;;;;;4017607;29;20185;-52
2023/06/30 05:23:53;;;;;;;7.03;2.33;;;21.50;73.20;;;;;;4014861;29;20052;-55
2023/06/30 05:26:34;;;;;;;4.85;2.17;;;21.50;73.30;;;;;;4002763;29;20061;-54
2023/06/30 05:29:16;;;;;;;4.78;1.70;;;21.50;73.30;;;;;;4003971;29;20136;-51
2023/06/30 05:31:57;;;;;;;10.40;2.75;;;21.60;73.30;;;;;;3995645;29;20069;-51
2023/06/30 05:34:38;;;;;;;;;;;21.70;74.00;;;;;;4017810;29;20132;-53
2023/06/30 05:37:18;;;;;;;3.22;1.98;;;21.90;72.80;;;;;;4017837;29;19931;-53
2023/06/30 05:39:59;;;;;;;6.00;2.58;;;22.00;72.50;;;;;;4017501;29;20534;-52
2023/06/30 05:42:40;;;;;;;4.50;2.25;;;22.00;72.10;;;;;;4017847;29;20057;-51
2023/06/30 05:45:22;;;;;;;6.28;2.22;;;22.10;71.90;;;;;;4002396;29;20057;-50
2023/06/30 05:48:04;;;;;;;2.50;2.30;;;22.10;71.50;;;;;;4002367;29;20141;-55
2023/06/30 05:50:46;;;;;;;5.95;2.38;;;22.20;71.20;;;;;;4017066;29;20197;-51
2023/06/30 05:53:27;;;;;;;3.35;2.00;;;22.20;70.90;;;;;;4017107;29;20060;-52
2023/06/30 05:56:08;;;;;;;3.72;2.33;;;22.20;70.60;;;;;;4003157;29;20163;-56
2023/06/30 05:58:49;;;;;;;5.35;2.28;;;22.20;70.90;;;;;;4002323;29;20065;-56
2023/06/30 06:01:31;;;;;;;4.93;2.28;;;22.30;71.10;;;;;;4002494;29;20117;-55
2023/06/30 06:04:12;;;;;;;4.30;1.65;;;22.20;71.10;;;;;;4002455;29;20060;-55
2023/06/30 06:06:53;;;;;;;7.10;2.00;;;22.20;71.10;;;;;;4001794;29;20060;-55
2023/06/30 06:09:34;;;;;;;3.65;2.25;;;22.20;71.30;;;;;;4002073;29;20049;-55
2023/06/30 06:12:15;;;;;;;7.88;2.03;;;22.30;71.50;;;;;;4010034;29;20056;-53
2023/06/30 06:14:56;;;;;;;4.50;2.10;;;22.20;71.20;;;;;;4012045;29;20094;-55
2023/06/30 06:17:38;;;;;;;4.05;2.15;;;22.30;71.10;;;;;;4021883;29;20065;-52
2023/06/30 06:20:20;;;;;;;2.63;1.60;;;22.30;71.00;;;;;;4020930;29;20393;-52
2023/06/30 06:23:01;;;;;;;4.88;1.90;;;22.40;70.90;;;;;;4017285;29;20056;-55
2023/06/30 06:25:42;;;;;;;4.53;1.88;;;22.40;70.60;;;;;;4004377;29;20057;-54
2023/06/30 06:28:25;;;;;;;3.83;1.60;;;22.50;70.30;;;;;;4006591;29;20061;-54
2023/06/30 06:31:06;;;;;;;3.58;1.60;;;22.50;70.00;;;;;;4015610;29;20052;-54
2023/06/30 06:33:48;;;;;;;1.73;1.08;;;22.60;69.70;;;;;;4017142;29;20060;-54
2023/06/30 06:36:29;;;;;;;4.88;1.65;;;22.60;69.30;;;;;;4021174;29;20052;-56
2023/06/30 06:39:10;;;;;;;3.90;1.50;;;22.60;69.00;;;;;;4003203;29;20053;-51
2023/06/30 06:41:51;;;;;;;7.63;1.80;;;22.60;69.70;;;;;;4024398;29;20105;-54
2023/06/30 06:44:34;;;;;;;5.57;1.10;;;22.60;68.40;;;;;;4009414;29;20055;-55
2023/06/30 06:47:54;;;;;;;5.05;1.60;;;22.60;68.40;;;;;;4031654;29;20060;-52
2023/06/30 06:50:37;;;;;;;3.63;1.80;;;22.60;67.90;;;;;;4012883;29;20089;-55
2023/06/30 06:53:20;;;;;;;4.80;1.65;;;22.60;68.00;;;;;;4015609;29;20052;-55
2023/06/30 06:56:02;;;;;;;3.60;1.33;;;22.60;67.90;;;;;;4013171;29;20060;-54
2023/06/30 06:58:43;;;;;;;7.20;1.55;;;22.60;67.70;;;;;;4012833;29;20053;-53
2023/06/30 07:01:24;;;;;;;3.97;1.50;;;22.70;67.50;;;;;;4016317;29;20513;-55
2023/06/30 07:04:05;;;;;;;1.58;1.30;;;22.70;67.20;;;;;;4013817;29;20064;-55
2023/06/30 07:06:47;;;;;;;6.47;1.50;;;22.70;67.00;;;;;;4016239;29;20081;-55
2023/06/30 07:09:28;;;;;;;3.97;1.40;;;22.70;67.00;;;;;;4007992;29;20061;-55
2023/06/30 07:12:10;;;;;;;5.45;1.30;;;22.70;66.80;;;;;;3990042;29;20057;-55
2023/06/30 07:14:51;;;;;;;5.78;1.42;;;22.70;66.70;;;;;;4001496;29;20524;-54
2023/06/30 07:17:32;;;;;;;3.90;1.42;;;22.70;66.70;;;;;;4001252;29;20060;-50
2023/06/30 07:20:13;;;;;;;5.75;1.52;;;22.70;66.30;;;;;;4016653;29;20056;-54
2023/06/30 07:22:57;;;;;;;4.13;1.45;;;22.70;66.50;;;;;;4012856;29;20181;-55
2023/06/30 07:25:38;;;;;;;13.85;1.52;;;22.70;66.50;;;;;;4025686;29;20063;-54
2023/06/30 07:28:18;;;;;;;4.20;1.45;;;22.70;66.40;;;;;;4031644;29;20055;-55
2023/06/30 07:31:00;;;;;;;3.22;1.15;;;22.70;66.20;;;;;;3990046;29;20190;-53
2023/06/30 07:33:41;;;;;;;;;;;22.70;66.10;;;;;;4001569;29;20394;-56
2023/06/30 07:36:21;;;;;;;3.40;1.63;;;22.70;66.40;;;;;;3996746;29;20283;-54
2023/06/30 07:39:03;;;;;;;5.50;1.30;;;22.60;66.30;;;;;;4001556;29;20538;-54
2023/06/30 07:41:44;;;;;;;5.20;1.52;;;22.60;66.10;;;;;;4001343;29;20057;-54
2023/06/30 07:44:25;;;;;;;2.72;1.38;;;22.60;66.10;;;;;;4025677;29;20064;-55
2023/06/30 07:47:06;;;;;;;2.97;1.15;;;22.60;66.40;;;;;;4016233;29;20049;-52
2023/06/30 07:49:47;;;;;;;2.25;1.10;;;22.60;66.30;;;;;;4016515;29;20057;-54
2023/06/30 07:52:28;;;;;;;2.50;1.10;;;22.60;66.00;;;;;;4002261;29;20182;-54
2023/06/30 07:55:12;;;;;;;3.13;1.33;;;22.60;65.70;;;;;;4016851;29;20060;-53
2023/06/30 07:57:53;;;;;;;4.53;1.50;;;22.60;65.50;;;;;;4018383;29;20105;-52
2023/06/30 08:00:34;;;;;;;5.60;1.80;;;22.60;65.20;;;;;;4019556;29;20069;-52
2023/06/30 08:03:15;;;;;;;;;;;22.60;65.30;;;;;;4019820;29;20702;-55
2023/06/30 08:05:57;;;;;;;4.00;1.75;;;22.60;65.70;;;;;;4018227;29;20393;-53
2023/06/30 08:08:39;;;;;;;6.90;1.88;;;22.60;65.40;;;;;;4019333;29;20190;-54
2023/06/30 08:11:21;;;;;;;3.83;1.17;;;22.60;65.10;;;;;;4019144;29;20064;-52
2023/06/30 08:14:04;;;;;;;1.98;1.40;;;22.60;64.80;;;;;;4018904;29;20049;-53
2023/06/30 08:16:45;;;;;;;2.28;0.88;;;22.60;64.50;;;;;;4019321;29;20068;-47
2023/06/30 08:19:26;;;;;;;4.95;1.35;;;22.60;64.50;;;;;;4016862;29;20140;-48
2023/06/30 08:22:27;;;;;;;2.22;1.00;;;22.60;65.20;;;;;;4018921;29;20084;-46
2023/06/30 08:25:08;;;;;;;4.47;1.05;;;22.60;65.10;;;;;;4004107;29;20061;-47
2023/06/30 08:27:51;;;;;;;;;;;22.50;64.90;;;;;;4007318;29;20530;-48
2023/06/30 08:30:31;;;;;;;1.63;1.30;;;22.50;65.10;;;;;;4016644;29;19935;-47
2023/06/30 08:33:12;;;;;;;1.48;1.15;;;22.50;65.30;;;;;;4003826;29;20130;-47
2023/06/30 08:36:00;;;;;;;2.35;1.48;;;22.50;65.10;;;;;;4003701;29;20060;-46
2023/06/30 08:38:41;;;;;;;2.83;1.08;;;22.60;65.10;;;;;;4015310;29;20076;-49
2023/06/30 08:41:24;;;;;;;2.40;0.90;;;22.60;64.30;;;;;;4018050;29;20064;-47
2023/06/30 08:44:06;;;;;;;2.78;1.42;;;22.60;64.00;;;;;;4009744;29;20072;-49
2023/06/30 08:46:48;;;;;;;1.83;0.73;;;22.60;63.40;;;;;;4003042;29;20065;-46
2023/06/30 08:49:31;;;;;;;2.22;1.00;;;22.60;64.00;;;;;;4015235;29;20072;-48
2023/06/30 08:52:14;;;;;;;2.85;1.02;;;22.60;63.90;;;;;;4018086;29;20194;-51
2023/06/30 08:54:55;;;;;;;2.33;1.40;;;22.60;63.90;;;;;;4018195;29;20540;-47
2023/06/30 08:57:36;;;;;;;2.45;1.00;;;22.60;64.00;;;;;;4018080;29;20110;-47
2023/06/30 09:00:20;;;;;;;2.10;0.90;;;22.60;64.30;;;;;;4002789;29;20057;-48
2023/06/30 09:03:04;;;;;;;1.85;1.00;;;22.60;64.60;;;;;;3991392;29;20064;-47
2023/06/30 09:05:47;;;;;;;3.60;1.33;;;22.60;64.80;;;;;;4002889;29;20061;-47
2023/06/30 09:08:34;;;;;;;2.22;1.00;;;22.60;64.80;;;;;;4006807;29;20190;-48
2023/06/30 09:11:24;;;;;;;3.75;1.58;;;22.60;64.90;;;;;;4018084;29;20104;-48
2023/06/30 09:14:07;;;;;;;3.13;1.20;;;22.60;64.60;;;;;;4016032;29;20105;-48
2023/06/30 09:16:49;;;;;;;4.57;1.30;;;22.60;63.60;;;;;;4002779;29;20065;-54
2023/06/30 09:19:31;;;;;;;1.70;1.30;;;22.60;62.90;;;;;;4002850;29;20168;-55
2023/06/30 09:22:12;;;;;;;3.35;1.50;;;22.70;63.70;;;;;;4002789;29;20194;-54
2023/06/30 09:25:32;;;;;;;;;;;22.70;63.80;;;;;;3991339;29;20061;-55
2023/06/30 09:28:15;;;;;;;3.35;1.20;;;22.70;63.90;;;;;;4001994;29;20367;-50
2023/06/30 09:31:01;;;;;;;2.15;1.05;;;22.70;62.60;;;;;;4002307;29;20190;-51
2023/06/30 09:33:47;;;;;;;5.35;1.48;;;22.70;62.00;;;;;;4011380;29;20060;-47
2023/06/30 09:36:29;;;;;;;5.60;1.38;;;22.70;62.10;;;;;;4017509;29;20065;-49
2023/06/30 09:39:10;;;;;;;5.50;1.30;;;22.70;62.90;;;;;;4017730;29;20060;-51
2023/06/30 09:41:52;;;;;;;3.90;1.20;;;22.70;62.90;;;;;;4017397;29;20064;-47
2023/06/30 09:44:40;;;;;;;3.00;1.13;;;22.70;62.60;;;;;;4002423;29;20065;-49
2023/06/30 09:47:21;;;;;;;3.42;1.35;;;22.70;62.50;;;;;;4002516;29;20061;-55
2023/06/30 09:50:04;;;;;;;3.22;1.50;;;22.70;62.60;;;;;;4002038;29;20057;-54
2023/06/30 09:52:46;;;;;;;2.70;1.45;;;22.70;63.10;;;;;;4005434;29;20056;-51
2023/06/30 09:55:26;;;;;;;2.30;1.15;;;22.80;64.00;;;;;;4017638;29;20252;-55
2023/06/30 09:58:12;;;;;;;3.03;1.30;;;22.80;62.60;;;;;;4017705;29;20085;-54
2023/06/30 10:00:53;;;;;;;2.63;0.90;;;22.80;62.50;;;;;;4017417;29;20060;-52
2023/06/30 10:03:34;;;;;;;4.05;1.20;;;22.90;62.00;;;;;;4004842;29;20100;-54
2023/06/30 10:06:17;;;;;;;1.90;1.38;;;22.90;60.40;;;;;;4002284;29;20061;-48
2023/06/30 10:08:59;;;;;;;4.82;1.30;;;22.90;59.80;;;;;;4002396;29;20056;-47
2023/06/30 10:11:43;;;;;;;1.67;1.20;;;22.90;60.10;;;;;;4001970;29;20049;-47
2023/06/30 10:14:30;;;;;;;8.02;1.55;;;22.90;60.10;;;;;;4002211;29;20114;-45
2023/06/30 10:17:12;;;;;;;4.63;1.23;;;22.90;60.50;;;;;;4002118;29;20511;-45
2023/06/30 10:19:53;;;;;;;3.58;1.10;;;22.90;60.70;;;;;;4001918;29;20098;-45
2023/06/30 10:22:37;;;;;;;5.55;1.48;;;22.90;61.00;;;;;;4008632;29;20571;-49
2023/06/30 10:25:20;;;;;;;2.00;0.90;;;22.90;61.30;;;;;;4017117;29;20052;-47
2023/06/30 10:28:02;;;;;;;0.93;0.93;;;22.90;60.80;;;;;;4016672;29;20060;-50
2023/06/30 10:30:44;;;;;;;4.45;0.98;;;22.90;60.00;;;;;;4016811;29;20185;-50
2023/06/30 10:33:25;;;;;;;2.47;1.25;;;22.90;60.10;;;;;;4003594;29;20101;-45
2023/06/30 10:36:07;;;;;;;;;;;23.00;59.80;;;;;;3996954;29;20071;-48
2023/06/30 10:38:49;;;;;;;3.22;1.20;;;23.00;60.50;;;;;;3986875;29;19935;-47
2023/06/30 10:41:30;;;;;;;2.05;1.33;;;23.00;60.30;;;;;;3975978;29;20414;-45
2023/06/30 10:44:11;;;;;;;;;;;23.00;60.30;;;;;;4001770;29;20056;-47
2023/06/30 10:46:53;;;;;;;2.80;1.00;;;23.00;60.80;;;;;;3990202;29;19950;-48
2023/06/30 10:49:36;;;;;;;1.05;0.90;;;23.00;60.80;;;;;;4001589;29;20302;-49
2023/06/30 10:52:26;;;;;;;1.63;1.10;;;23.00;60.40;;;;;;3995059;29;20058;-45
2023/06/30 10:55:14;;;;;;;5.05;1.50;;;23.00;59.70;;;;;;3986642;29;20418;-47
2023/06/30 10:57:55;;;;;;;2.70;0.95;;;23.00;59.90;;;;;;3986441;29;20062;-44
2023/06/30 11:00:36;;;;;;;2.78;1.10;;;23.00;59.50;;;;;;3986519;29;20074;-47
2023/06/30 11:03:17;;;;;;;1.52;1.00;;;23.10;59.20;;;;;;3975157;29;20110;-47
2023/06/30 11:06:16;;;;;;;3.17;1.00;;;23.10;59.10;;;;;;3986302;29;20061;-45
2023/06/30 11:09:01;;;;;;;3.90;0.95;;;23.10;58.30;;;;;;3985277;29;20195;-46
2023/06/30 11:11:50;;;;;;;2.15;0.90;;;23.10;57.80;;;;;;3990346;29;20057;-47
2023/06/30 11:14:32;;;;;;;5.55;1.40;;;23.10;58.10;;;;;;4001529;29;20061;-47
2023/06/30 11:17:15;;;;;;;1.10;0.82;;;23.10;58.20;;;;;;4001371;29;20060;-46
2023/06/30 11:20:09;;;;;;;1.65;0.80;;;23.10;57.90;;;;;;4001622;29;20455;-47
2023/06/30 11:22:57;;;;;;;2.58;1.13;;;23.10;57.90;;;;;;3986328;29;20065;-45
2023/06/30 11:25:38;;;;;;;3.97;1.15;;;23.20;56.90;;;;;;3986147;29;20060;-46
2023/06/30 11:28:23;;;;;;;1.13;1.00;;;23.20;57.90;;;;;;3986264;29;20060;-46
2023/06/30 11:31:04;;;;;;;2.08;1.23;;;23.20;57.80;;;;;;3990500;29;20057;-47
2023/06/30 11:33:46;;;;;;;1.95;1.15;;;23.30;57.50;;;;;;4004607;29;20061;-47
2023/06/30 11:36:31;;;;;;;1.15;1.10;;;23.30;57.40;;;;;;4003680;29;20109;-51
2023/06/30 11:39:15;;;;;;;4.13;1.20;;;23.30;57.30;;;;;;4008047;29;20186;-52
2023/06/30 11:41:56;;;;;;;1.20;1.00;;;23.30;57.30;;;;;;4009236;29;20057;-50
2023/06/30 11:44:38;;;;;;;1.13;1.00;;;23.30;57.20;;;;;;4004245;29;20053;-51
2023/06/30 11:47:20;;;;;;;3.40;1.33;;;23.30;57.10;;;;;;4004162;29;20069;-46
2023/06/30 11:50:06;;;;;;;2.45;1.05;;;23.30;56.90;;;;;;4004048;29;20060;-46
2023/06/30 11:52:48;;;;;;;1.88;1.13;;;23.30;56.60;;;;;;4004101;29;20191;-53
2023/06/30 11:55:29;;;;;;;1.65;1.20;;;23.40;56.90;;;;;;4004098;29;20195;-52
2023/06/30 11:58:10;;;;;;;4.57;1.38;;;23.40;57.00;;;;;;4003872;29;20129;-53
2023/06/30 12:00:52;;;;;;;2.40;1.10;;;23.40;57.10;;;;;;4007881;29;20234;-45
2023/06/30 12:03:33;;;;;;;1.75;1.17;;;23.40;57.10;;;;;;3992416;29;20151;-46
2023/06/30 12:06:18;;;;;;;;;;;23.40;57.00;;;;;;3992882;29;20064;-51
2023/06/30 12:08:59;;;;;;;5.45;1.80;;;23.40;57.60;;;;;;4004113;29;20248;-46
2023/06/30 12:11:42;;;;;;;3.83;1.73;;;23.40;57.50;;;;;;4004292;29;20145;-46
2023/06/30 12:14:25;;;;;;;5.68;1.40;;;23.40;57.20;;;;;;4018656;29;20080;-50
2023/06/30 12:17:10;;;;;;;2.63;1.33;;;23.40;57.20;;;;;;4018899;29;20056;-47
2023/06/30 12:19:51;;;;;;;2.83;1.40;;;23.40;57.10;;;;;;4018934;29;20096;-45
2023/06/30 12:22:36;;;;;;;7.22;1.48;;;23.50;57.30;;;;;;4003637;29;20061;-45
2023/06/30 12:25:18;;;;;;;2.78;1.10;;;23.50;56.90;;;;;;4003524;29;20133;-48
2023/06/30 12:27:58;;;;;;;2.83;1.30;;;23.50;56.50;;;;;;4003247;29;20061;-46
2023/06/30 12:30:44;;;;;;;2.13;1.15;;;23.50;56.30;;;;;;4003933;29;20076;-47
2023/06/30 12:33:28;;;;;;;2.63;1.60;;;23.60;56.40;;;;;;4003528;29;20132;-47
2023/06/30 12:36:09;;;;;;;1.48;1.38;;;23.60;55.80;;;;;;4003244;29;20433;-45
2023/06/30 12:38:50;;;;;;;3.15;1.50;;;23.60;55.90;;;;;;4003350;29;20509;-46
2023/06/30 12:41:31;;;;;;;1.45;1.08;;;23.70;56.50;;;;;;4015383;29;20114;-46
2023/06/30 12:44:12;;;;;;;5.13;1.80;;;23.60;55.70;;;;;;4018711;29;20113;-47
2023/06/30 12:47:00;;;;;;;1.90;1.42;;;23.70;55.60;;;;;;4018550;29;20419;-48
2023/06/30 12:49:43;;;;;;;6.55;1.40;;;23.70;55.40;;;;;;4018748;29;20554;-47
2023/06/30 12:52:23;;;;;;;1.52;1.33;;;23.70;55.50;;;;;;4003284;29;20069;-54
2023/06/30 12:55:06;;;;;;;1.48;1.38;;;23.70;55.40;;;;;;4003367;29;20057;-50
2023/06/30 12:57:47;;;;;;;3.80;1.40;;;23.70;55.70;;;;;;4002893;29;20118;-52
2023/06/30 13:00:35;;;;;;;4.95;1.20;;;23.70;55.50;;;;;;4094612;23;20092;-54
2023/06/30 13:03:17;;;;;;;4.53;1.40;;;23.70;55.60;;;;;;3974596;29;20080;-53
2023/06/30 13:05:59;;;;;;;1.77;1.20;;;23.60;55.80;;;;;;3987952;29;20066;-50
2023/06/30 13:08:40;;;;;;;3.80;1.45;;;23.60;55.60;;;;;;3987784;29;20057;-54
2023/06/30 13:11:23;;;;;;;3.22;1.40;;;23.60;55.60;;;;;;4000153;29;20082;-52
2023/06/30 13:14:04;;;;;;;2.08;1.48;;;23.60;55.90;;;;;;3991765;29;20065;-52
2023/06/30 13:16:45;;;;;;;2.17;1.55;;;23.60;55.60;;;;;;4002816;29;20102;-52
2023/06/30 13:19:28;;;;;;;1.75;1.50;;;23.60;55.80;;;;;;4001355;29;20068;-50
2023/06/30 13:22:12;;;;;;;3.03;1.30;;;23.70;55.80;;;;;;3987749;29;20498;-53
2023/06/30 13:24:53;;;;;;;1.90;1.30;;;23.60;55.40;;;;;;3987689;29;20190;-50
2023/06/30 13:27:34;;;;;;;3.53;1.25;;;23.70;56.10;;;;;;3987818;29;20057;-51
2023/06/30 13:30:15;;;;;;;2.05;1.00;;;23.70;55.60;;;;;;3987707;29;20579;-54
2023/06/30 13:32:56;;;;;;;1.33;1.20;;;23.70;55.60;;;;;;3987184;29;20422;-54
2023/06/30 13:35:37;;;;;;;1.83;1.40;;;23.70;55.40;;;;;;3987332;29;20610;-52
2023/06/30 13:38:19;;;;;;;2.22;1.40;;;23.70;55.70;;;;;;3987491;29;20517;-54
2023/06/30 13:41:01;;;;;;;3.63;1.15;;;23.70;55.80;;;;;;3972516;29;20135;-52
2023/06/30 13:43:41;;;;;;;;;;;23.70;55.80;;;;;;3961499;29;20058;-51
2023/06/30 13:46:23;;;;;;;3.75;1.00;;;23.70;56.10;;;;;;3972216;29;20394;-50
2023/06/30 13:49:04;;;;;;;2.05;1.58;;;23.70;55.70;;;;;;3973445;29;20065;-52
2023/06/30 13:51:45;;;;;;;2.40;1.05;;;23.70;55.30;;;;;;4001822;29;20057;-53
2023/06/30 13:54:29;;;;;;;3.33;1.50;;;23.70;55.30;;;;;;4001887;29;20210;-51
2023/06/30 13:57:11;;;;;;;1.90;1.50;;;23.70;55.20;;;;;;4001996;29;20134;-53
2023/06/30 13:59:52;;;;;;;3.50;1.30;;;23.70;55.30;;;;;;3993005;29;20061;-51
2023/06/30 14:02:33;;;;;;;;;;;23.70;54.60;;;;;;3987162;29;20057;-52
2023/06/30 14:05:14;;;;;;;9.38;1.52;;;23.70;54.90;;;;;;3986732;29;20293;-46
2023/06/30 14:07:55;;;;;;;3.28;1.27;;;23.70;55.10;;;;;;3986938;29;20062;-50
2023/06/30 14:10:37;;;;;;;4.75;1.60;;;23.60;55.20;;;;;;3999908;29;20072;-46